Time;durP1;ratioP1;P1;durP2;ratioP2;P2;SDS_P1;SDS_P2;PMS_P1;PMS_P2;Temp;Humidity;BMP_temperature;BMP_pressure;BME280_temperature;BME280_humidity;BME280_pressure;Samples;Min_cycle;Max_cycle;Signal;HPM_P1;HPM_P2
2021/03/25 00:03:34;;;;;;;10.10;8.93;;;9.10;31.90;;;;;;10475401;28;20225;-71
2021/03/25 00:08:36;;;;;;;9.57;8.43;;;9.10;31.80;;;;;;10484726;28;20224;-71
2021/03/25 00:13:40;;;;;;;7.77;6.97;;;9.00;31.70;;;;;;10482200;28;20221;-71
2021/03/25 00:18:43;;;;;;;9.00;7.07;;;9.00;32.00;;;;;;10484939;28;20242;-71
2021/03/25 00:23:45;;;;;;;10.03;8.80;;;8.90;32.00;;;;;;10481495;28;20274;-71
2021/03/25 00:28:48;;;;;;;9.90;8.60;;;8.90;32.00;;;;;;10484531;28;20250;-72
2021/03/25 00:33:51;;;;;;;10.03;8.33;;;8.80;31.90;;;;;;10480940;28;20236;-72
2021/03/25 00:38:54;;;;;;;10.00;8.03;;;8.70;31.80;;;;;;10481991;28;20224;-72
2021/03/25 00:43:57;;;;;;;10.53;8.77;;;8.50;31.70;;;;;;10478914;28;20225;-72
2021/03/25 00:49:01;;;;;;;9.90;8.30;;;8.40;32.10;;;;;;10483716;28;20587;-72
2021/03/25 00:54:03;;;;;;;8.50;7.33;;;8.20;32.10;;;;;;10478943;28;20228;-73
2021/03/25 00:59:07;;;;;;;9.60;8.60;;;8.20;32.30;;;;;;10483188;28;20696;-73
2021/03/25 01:04:09;;;;;;;8.87;7.97;;;8.10;32.30;;;;;;10479543;28;20775;-73
2021/03/25 01:09:13;;;;;;;9.60;8.60;;;8.00;32.10;;;;;;10481358;28;20236;-73
2021/03/25 01:14:19;;;;;;;10.27;9.27;;;7.90;32.30;;;;;;10482991;28;20216;-73
2021/03/25 01:19:29;;;;;;;10.83;8.77;;;7.80;32.50;;;;;;10479745;28;20281;-73
2021/03/25 01:24:31;;;;;;;10.23;8.77;;;7.60;32.80;;;;;;10477700;28;20485;-73
2021/03/25 01:29:34;;;;;;;11.90;9.53;;;7.50;32.70;;;;;;10481533;28;20228;-74
2021/03/25 01:34:36;;;;;;;8.20;7.33;;;7.50;32.80;;;;;;10482131;28;20231;-74
2021/03/25 01:39:38;;;;;;;8.17;7.30;;;7.40;32.70;;;;;;10482329;28;20236;-74
2021/03/25 01:44:43;;;;;;;9.27;7.93;;;7.40;32.70;;;;;;10470976;28;20232;-74
2021/03/25 01:49:46;;;;;;;8.77;7.13;;;7.30;33.00;;;;;;10472089;28;20228;-74
2021/03/25 01:55:09;;;;;;;7.40;6.63;;;7.40;32.90;;;;;;10484277;28;20224;-74
2021/03/25 02:00:22;;;;;;;9.47;8.47;;;7.40;33.60;;;;;;10479595;28;20242;-74
2021/03/25 02:05:32;;;;;;;10.57;8.70;;;7.40;33.50;;;;;;10483417;28;20250;-74
2021/03/25 02:10:46;;;;;;;10.03;8.97;;;7.40;33.00;;;;;;10491390;28;20749;-74
2021/03/25 02:15:57;;;;;;;10.63;8.97;;;7.30;33.20;;;;;;10502499;28;20220;-74
2021/03/25 02:21:30;;;;;;;8.17;7.33;;;7.30;33.20;;;;;;10503202;28;20597;-74
2021/03/25 02:26:36;;;;;;;9.07;7.47;;;7.20;33.50;;;;;;10502063;28;20230;-74
2021/03/25 02:31:42;;;;;;;10.10;8.20;;;7.10;33.20;;;;;;10501919;28;20906;-74
2021/03/25 02:36:50;;;;;;;10.00;8.23;;;7.10;33.20;;;;;;10501037;28;20232;-73
2021/03/25 02:41:56;;;;;;;7.37;6.53;;;7.10;33.40;;;;;;10499885;28;20216;-74
2021/03/25 02:47:08;;;;;;;8.73;7.33;;;7.10;33.20;;;;;;10502384;28;20331;-74
2021/03/25 02:52:17;;;;;;;8.17;7.10;;;7.10;33.60;;;;;;10496615;28;20632;-74
2021/03/25 02:57:24;;;;;;;9.43;6.80;;;7.10;33.40;;;;;;10502919;28;20281;-74
2021/03/25 03:02:37;;;;;;;7.33;6.63;;;7.10;33.30;;;;;;10500153;28;20224;-74
2021/03/25 03:07:44;;;;;;;8.17;6.67;;;7.10;33.50;;;;;;10499894;28;20224;-74
2021/03/25 03:12:47;;;;;;;8.00;6.70;;;7.10;33.40;;;;;;10500282;28;20777;-74
2021/03/25 03:17:59;;;;;;;9.23;8.13;;;7.10;33.00;;;;;;10499316;28;20254;-74
2021/03/25 03:23:02;;;;;;;9.70;8.07;;;7.10;33.50;;;;;;10499038;28;20232;-74
2021/03/25 03:28:12;;;;;;;9.87;8.87;;;7.10;33.10;;;;;;10492954;28;20726;-74
2021/03/25 03:33:20;;;;;;;10.47;8.53;;;7.00;33.20;;;;;;10494774;28;20236;-74
2021/03/25 03:38:29;;;;;;;9.63;7.53;;;6.90;33.40;;;;;;10490501;28;20727;-74
2021/03/25 03:43:34;;;;;;;7.40;6.40;;;6.80;33.30;;;;;;10486797;28;20239;-74
2021/03/25 03:48:41;;;;;;;9.60;7.73;;;6.80;33.40;;;;;;10493521;28;20601;-74
2021/03/25 03:53:43;;;;;;;10.03;8.07;;;6.70;33.60;;;;;;10490929;28;20235;-74
2021/03/25 03:58:50;;;;;;;9.73;8.13;;;6.70;33.20;;;;;;10486856;28;20238;-74
2021/03/25 04:03:59;;;;;;;8.63;7.70;;;6.70;33.40;;;;;;10490404;28;20586;-74
2021/03/25 04:09:05;;;;;;;8.33;7.00;;;6.60;33.50;;;;;;10490216;28;20236;-74
2021/03/25 04:14:11;;;;;;;8.57;7.27;;;6.60;33.40;;;;;;10492710;28;20232;-74
2021/03/25 04:19:18;;;;;;;8.00;6.63;;;6.60;33.40;;;;;;10487618;28;20228;-74
2021/03/25 04:24:31;;;;;;;7.93;7.13;;;6.60;33.50;;;;;;10492163;28;20232;-74
2021/03/25 04:29:39;;;;;;;9.63;7.77;;;6.60;33.40;;;;;;10489540;28;20235;-74
2021/03/25 04:34:42;;;;;;;9.57;8.23;;;6.60;33.60;;;;;;10491397;28;20246;-74
2021/03/25 04:39:46;;;;;;;12.33;9.50;;;6.60;33.30;;;;;;10489511;28;20232;-74
2021/03/25 04:44:51;;;;;;;10.60;9.03;;;6.50;33.20;;;;;;10479650;28;20307;-74
2021/03/25 04:49:56;;;;;;;9.80;8.53;;;6.40;33.20;;;;;;10487160;28;20224;-74
2021/03/25 04:55:06;;;;;;;9.87;8.33;;;6.30;33.50;;;;;;10491022;28;20707;-74
2021/03/25 05:00:11;;;;;;;8.37;7.40;;;6.20;33.90;;;;;;10488781;28;20227;-74
2021/03/25 05:05:17;;;;;;;7.93;7.17;;;6.20;33.80;;;;;;10488932;28;20234;-74
2021/03/25 05:10:25;;;;;;;9.80;8.03;;;6.20;34.60;;;;;;10489361;28;20236;-74
2021/03/25 05:15:31;;;;;;;15.30;13.07;;;6.10;33.90;;;;;;10488181;28;20230;-74
2021/03/25 05:20:40;;;;;;;10.90;9.07;;;6.10;33.70;;;;;;10488487;28;20246;-74
2021/03/25 05:25:47;;;;;;;11.20;9.23;;;6.00;34.00;;;;;;10489011;28;20234;-74
2021/03/25 05:30:52;;;;;;;11.43;9.07;;;6.00;34.00;;;;;;10484580;28;20845;-74
2021/03/25 05:35:58;;;;;;;8.07;6.73;;;6.00;34.00;;;;;;10488170;28;20307;-74
2021/03/25 05:41:10;;;;;;;12.87;9.43;;;6.00;33.90;;;;;;10487214;28;20250;-74
2021/03/25 05:46:23;;;;;;;9.20;8.23;;;6.10;34.40;;;;;;10486576;28;20220;-74
2021/03/25 05:51:34;;;;;;;7.60;6.60;;;6.00;34.30;;;;;;10487897;28;20231;-74
2021/03/25 05:56:50;;;;;;;7.17;6.43;;;6.00;34.60;;;;;;10488298;28;20226;-74
2021/03/25 06:02:00;;;;;;;9.67;6.97;;;6.00;34.80;;;;;;10486871;28;20230;-74
2021/03/25 06:07:27;;;;;;;10.63;8.33;;;6.00;34.70;;;;;;10488103;28;20228;-74
2021/03/25 06:12:51;;;;;;;10.83;8.43;;;6.10;35.00;;;;;;10485649;28;20601;-74
2021/03/25 06:18:07;;;;;;;8.93;8.03;;;6.10;35.50;;;;;;10481677;28;20232;-73
2021/03/25 06:23:26;;;;;;;9.17;7.00;;;6.10;35.30;;;;;;10485252;28;20739;-74
2021/03/25 06:28:35;;;;;;;8.70;7.03;;;6.20;35.70;;;;;;10486290;28;20238;-74
2021/03/25 06:33:46;;;;;;;8.03;6.53;;;6.20;35.50;;;;;;10488643;28;20236;-73
2021/03/25 06:38:52;;;;;;;7.43;6.67;;;6.30;35.40;;;;;;10483385;28;20282;-74
2021/03/25 06:44:00;;;;;;;9.57;7.67;;;6.30;35.50;;;;;;10478816;28;20255;-73
2021/03/25 06:49:10;;;;;;;8.23;7.40;;;6.40;35.50;;;;;;10488605;28;20311;-73
2021/03/25 06:54:16;;;;;;;9.13;6.30;;;6.50;36.10;;;;;;10487094;28;20688;-73
2021/03/25 06:59:24;;;;;;;7.70;6.90;;;6.60;36.10;;;;;;10490207;28;20609;-73
2021/03/25 07:04:29;;;;;;;11.07;7.23;;;6.70;36.30;;;;;;10490567;28;20658;-73
2021/03/25 07:09:34;;;;;;;7.67;6.57;;;6.80;36.40;;;;;;10495356;28;20234;-72
2021/03/25 07:14:41;;;;;;;8.73;6.23;;;6.90;36.70;;;;;;10493468;28;20238;-73
2021/03/25 07:19:47;;;;;;;8.40;6.27;;;7.10;36.70;;;;;;10494554;28;20590;-73
2021/03/25 07:24:52;;;;;;;7.37;6.00;;;7.20;36.70;;;;;;10487958;28;20233;-72
2021/03/25 07:30:00;;;;;;;8.50;6.13;;;7.40;37.00;;;;;;10491241;28;20725;-70
2021/03/25 07:35:23;;;;;;;7.07;5.60;;;7.50;37.60;;;;;;10491653;28;20221;-71
2021/03/25 07:40:31;;;;;;;5.73;4.73;;;7.70;37.90;;;;;;10489016;28;20232;-70
2021/03/25 07:45:35;;;;;;;7.40;4.87;;;8.00;37.10;;;;;;10487461;28;20609;-70
2021/03/25 07:50:45;;;;;;;8.17;4.90;;;8.30;36.90;;;;;;10491928;28;20239;-70
2021/03/25 07:55:49;;;;;;;7.27;4.53;;;8.60;36.90;;;;;;10489096;28;20584;-70
2021/03/25 08:01:06;;;;;;;5.23;4.53;;;8.90;36.80;;;;;;10493953;28;20730;-70
2021/03/25 08:06:20;;;;;;;5.67;4.70;;;9.30;37.20;;;;;;10493171;28;20223;-71
2021/03/25 08:11:23;;;;;;;6.07;5.30;;;9.70;37.00;;;;;;10487388;28;20255;-70
2021/03/25 08:16:28;;;;;;;7.63;6.00;;;10.10;35.80;;;;;;10492808;28;20232;-70
2021/03/25 08:21:46;;;;;;;7.53;5.93;;;10.30;35.60;;;;;;10491133;28;20228;-70
2021/03/25 08:27:01;;;;;;;6.83;5.10;;;10.60;34.40;;;;;;10485766;28;20228;-70
2021/03/25 08:32:19;;;;;;;7.73;5.80;;;11.00;34.20;;;;;;10496303;28;20291;-70
2021/03/25 08:37:45;;;;;;;6.73;5.70;;;11.30;34.00;;;;;;10488567;28;20258;-70
2021/03/25 08:42:53;;;;;;;7.73;5.40;;;11.70;33.50;;;;;;10474180;28;20235;-70
2021/03/25 08:48:03;;;;;;;6.53;5.30;;;11.90;33.60;;;;;;10492474;28;20228;-70
2021/03/25 08:53:14;;;;;;;6.03;5.43;;;12.10;33.10;;;;;;10489375;28;20943;-70
2021/03/25 08:58:20;;;;;;;6.70;5.40;;;12.30;33.40;;;;;;10488389;28;20224;-71
2021/03/25 09:03:29;;;;;;;5.80;4.93;;;12.60;33.80;;;;;;10489984;28;20553;-71
2021/03/25 09:08:33;;;;;;;7.30;5.77;;;12.90;33.30;;;;;;10487038;28;20573;-72
2021/03/25 09:13:43;;;;;;;6.67;5.93;;;13.20;33.70;;;;;;10490607;28;20235;-72
2021/03/25 09:18:46;;;;;;;8.57;5.83;;;13.40;32.20;;;;;;10486649;28;20231;-72
2021/03/25 09:24:12;;;;;;;5.83;5.27;;;13.70;33.50;;;;;;10487950;28;20233;-73
2021/03/25 09:29:16;;;;;;;7.50;5.90;;;14.00;33.10;;;;;;10487654;28;20238;-72
2021/03/25 09:34:46;;;;;;;6.10;5.47;;;14.20;32.80;;;;;;10490192;28;20235;-72
2021/03/25 09:40:11;;;;;;;6.20;5.60;;;14.40;31.60;;;;;;10478905;28;20577;-72
2021/03/25 09:45:32;;;;;;;7.37;6.00;;;14.70;31.80;;;;;;10481459;28;20710;-72
2021/03/25 09:50:36;;;;;;;8.00;6.90;;;14.90;32.00;;;;;;10486306;28;20726;-73
2021/03/25 09:55:40;;;;;;;8.00;6.60;;;15.00;32.10;;;;;;10490061;28;20230;-72
2021/03/25 10:00:59;;;;;;;8.33;7.43;;;15.20;32.30;;;;;;10487625;28;20600;-72
2021/03/25 10:06:01;;;;;;;8.03;7.23;;;15.40;31.00;;;;;;10478916;28;20247;-72
2021/03/25 10:11:37;;;;;;;9.67;6.60;;;15.60;32.10;;;;;;10485598;28;20231;-72
2021/03/25 10:16:50;;;;;;;8.47;7.57;;;15.90;31.60;;;;;;10484783;28;20749;-72
2021/03/25 10:21:57;;;;;;;9.27;7.33;;;16.10;30.50;;;;;;10480174;28;20315;-72
2021/03/25 10:27:13;;;;;;;9.40;7.70;;;16.30;30.00;;;;;;10489238;28;20232;-72
2021/03/25 10:32:25;;;;;;;8.73;7.70;;;16.50;30.70;;;;;;10489097;28;20226;-72
2021/03/25 10:37:34;;;;;;;10.17;7.80;;;16.70;29.80;;;;;;10497117;28;20596;-72
2021/03/25 10:42:39;;;;;;;11.00;8.93;;;16.90;29.70;;;;;;10485383;28;20256;-72
2021/03/25 10:47:48;;;;;;;9.27;7.70;;;17.10;29.40;;;;;;10496986;28;20232;-72
2021/03/25 10:52:51;;;;;;;9.00;7.83;;;17.20;28.50;;;;;;10487630;28;20224;-72
2021/03/25 10:57:55;;;;;;;8.63;7.47;;;17.30;29.70;;;;;;10496581;28;20315;-72
2021/03/25 11:03:01;;;;;;;7.80;6.73;;;17.40;29.30;;;;;;10490698;28;20235;-72
2021/03/25 11:08:34;;;;;;;7.83;6.90;;;17.50;29.20;;;;;;10494624;28;20265;-72
2021/03/25 11:13:37;;;;;;;7.40;6.67;;;17.60;28.40;;;;;;10489160;28;20224;-72
2021/03/25 11:18:45;;;;;;;9.60;6.80;;;17.70;29.50;;;;;;10495747;28;20323;-72
2021/03/25 11:23:48;;;;;;;8.00;6.90;;;17.80;28.10;;;;;;10485780;28;20232;-72
2021/03/25 11:28:50;;;;;;;9.07;6.93;;;17.90;28.70;;;;;;10494152;28;20319;-72
2021/03/25 11:33:54;;;;;;;7.17;6.47;;;18.00;28.90;;;;;;10485884;28;20224;-72
2021/03/25 11:39:10;;;;;;;8.43;6.73;;;18.20;28.20;;;;;;10494839;28;20266;-71
2021/03/25 11:44:44;;;;;;;7.63;6.27;;;18.30;27.50;;;;;;10482965;28;20240;-71
2021/03/25 11:49:47;;;;;;;6.87;5.97;;;18.40;28.20;;;;;;10485889;28;20707;-72
2021/03/25 11:54:59;;;;;;;7.30;6.43;;;18.50;27.80;;;;;;10494252;28;20231;-72
2021/03/25 12:00:09;;;;;;;7.37;6.07;;;18.70;26.80;;;;;;10488564;28;20323;-72
2021/03/25 12:05:40;;;;;;;8.13;6.83;;;18.80;26.40;;;;;;10493958;28;20323;-71
2021/03/25 12:10:43;;;;;;;10.10;7.50;;;18.90;26.30;;;;;;10490896;28;20234;-72
2021/03/25 12:15:45;;;;;;;9.33;6.83;;;19.00;27.40;;;;;;10491723;28;20224;-72
2021/03/25 12:20:49;;;;;;;8.63;6.80;;;19.00;26.80;;;;;;10489716;28;20243;-72
2021/03/25 12:25:53;;;;;;;7.63;6.27;;;19.10;26.50;;;;;;10491699;28;20323;-72
2021/03/25 12:30:56;;;;;;;6.73;5.47;;;19.10;26.40;;;;;;10488897;28;20232;-72
2021/03/25 12:36:00;;;;;;;5.53;4.70;;;19.10;26.50;;;;;;10492407;28;20327;-71
2021/03/25 12:41:03;;;;;;;5.17;4.07;;;19.10;26.10;;;;;;10479967;28;20232;-72
2021/03/25 12:46:08;;;;;;;3.67;3.13;;;19.20;26.00;;;;;;10488188;28;20238;-72
2021/03/25 12:51:13;;;;;;;4.53;3.20;;;19.20;24.80;;;;;;10488398;28;20231;-72
2021/03/25 12:56:19;;;;;;;3.53;3.20;;;19.30;24.80;;;;;;10490853;28;20272;-72
2021/03/25 13:01:30;;;;;;;4.20;3.17;;;19.40;24.90;;;;;;10488862;28;20719;-72
2021/03/25 13:06:35;;;;;;;2.70;2.50;;;19.40;24.90;;;;;;10487127;28;20225;-76
2021/03/25 13:11:37;;;;;;;3.43;2.77;;;19.50;23.80;;;;;;10490348;28;20224;-75
2021/03/25 13:16:39;;;;;;;2.87;2.63;;;19.50;24.70;;;;;;10484993;28;20232;-71
2021/03/25 13:21:42;;;;;;;3.40;2.40;;;19.50;24.40;;;;;;10486937;28;20221;-75
2021/03/25 13:26:48;;;;;;;3.07;2.77;;;19.60;23.60;;;;;;10484608;28;20232;-75
2021/03/25 13:31:50;;;;;;;4.13;3.20;;;19.50;23.60;;;;;;10487664;28;20226;-75
2021/03/25 13:36:55;;;;;;;4.20;3.53;;;19.50;23.70;;;;;;10489141;28;20565;-75
2021/03/25 13:41:58;;;;;;;6.00;3.87;;;19.60;22.00;;;;;;10478524;28;20246;-75
2021/03/25 13:47:00;;;;;;;5.17;4.43;;;19.60;23.70;;;;;;10489947;28;20338;-76
2021/03/25 13:52:04;;;;;;;4.33;3.80;;;19.60;23.70;;;;;;10487435;28;20244;-72
2021/03/25 13:57:08;;;;;;;4.40;3.90;;;19.60;23.00;;;;;;10490935;28;20269;-74
2021/03/25 14:02:10;;;;;;;5.63;4.27;;;19.70;23.40;;;;;;10489939;28;20224;-75
2021/03/25 14:07:14;;;;;;;5.60;4.47;;;19.70;23.40;;;;;;10489376;28;20238;-75
2021/03/25 14:12:17;;;;;;;5.80;4.60;;;19.80;22.80;;;;;;10490145;28;20226;-75
2021/03/25 14:17:19;;;;;;;4.87;4.37;;;19.80;23.30;;;;;;10484080;28;20230;-75
2021/03/25 14:22:22;;;;;;;5.50;4.90;;;19.80;23.30;;;;;;10488084;28;20236;-75
2021/03/25 14:27:24;;;;;;;6.73;4.80;;;19.90;22.90;;;;;;10483058;28;20254;-76
2021/03/25 14:32:27;;;;;;;6.43;5.03;;;19.90;23.00;;;;;;10494085;28;20228;-75
2021/03/25 14:37:30;;;;;;;7.53;5.27;;;19.90;23.10;;;;;;10488405;28;20236;-76
2021/03/25 14:42:32;;;;;;;5.00;4.20;;;19.90;22.80;;;;;;10474384;28;20228;-75
2021/03/25 14:47:34;;;;;;;6.97;4.80;;;19.90;23.10;;;;;;10486653;28;20255;-75
2021/03/25 14:52:38;;;;;;;4.57;4.00;;;20.00;22.80;;;;;;10485509;28;20232;-75
2021/03/25 14:57:40;;;;;;;5.00;4.30;;;20.00;22.90;;;;;;10505882;22;20744;-75
2021/03/25 15:02:43;;;;;;;5.23;4.27;;;20.00;22.20;;;;;;10489336;28;20224;-75
2021/03/25 15:07:46;;;;;;;6.50;4.67;;;20.00;22.00;;;;;;10453085;28;20240;-75
2021/03/25 15:12:49;;;;;;;5.10;4.50;;;19.90;21.40;;;;;;10449129;28;20221;-75
2021/03/25 15:17:51;;;;;;;5.70;4.90;;;19.90;21.90;;;;;;10453308;28;20316;-75
2021/03/25 15:22:56;;;;;;;5.30;4.40;;;19.90;22.00;;;;;;10457601;28;20232;-75
2021/03/25 15:27:58;;;;;;;5.17;4.13;;;19.90;21.40;;;;;;10456600;28;20311;-75
2021/03/25 15:33:01;;;;;;;6.17;4.57;;;19.90;22.10;;;;;;10450337;28;20241;-75
2021/03/25 15:38:06;;;;;;;5.07;4.47;;;19.90;21.90;;;;;;10453938;28;20229;-75
2021/03/25 15:43:09;;;;;;;5.13;4.00;;;19.90;21.90;;;;;;10454594;28;20304;-74
2021/03/25 15:48:13;;;;;;;6.10;4.60;;;19.90;22.20;;;;;;10455896;28;20225;-75
2021/03/25 15:53:19;;;;;;;6.13;5.33;;;19.90;21.80;;;;;;10455365;28;20312;-76
2021/03/25 15:58:21;;;;;;;5.77;4.63;;;19.90;21.30;;;;;;10452280;28;20355;-76
2021/03/25 16:03:24;;;;;;;5.30;4.40;;;19.90;21.70;;;;;;10458157;28;20237;-75
2021/03/25 16:08:27;;;;;;;5.20;4.30;;;19.90;21.60;;;;;;10453779;28;20237;-75
2021/03/25 16:13:30;;;;;;;4.50;3.93;;;19.80;21.90;;;;;;10453717;28;20231;-75
2021/03/25 16:18:32;;;;;;;5.87;4.50;;;19.80;21.80;;;;;;10456787;28;20800;-76
2021/03/25 16:23:37;;;;;;;5.73;5.00;;;19.80;21.70;;;;;;10451910;28;20704;-75
2021/03/25 16:28:40;;;;;;;5.60;4.47;;;19.80;21.60;;;;;;10456923;28;20249;-76
2021/03/25 16:33:43;;;;;;;5.23;3.60;;;19.80;21.80;;;;;;10448342;28;20770;-74
2021/03/25 16:38:46;;;;;;;6.33;2.97;;;19.80;22.20;;;;;;10451299;28;20290;-75
2021/03/25 16:43:53;;;;;;;5.50;3.20;;;19.80;21.90;;;;;;10454274;28;20239;-76
2021/03/25 16:48:56;;;;;;;3.43;2.80;;;19.80;21.70;;;;;;10453355;28;20231;-75
2021/03/25 16:53:59;;;;;;;6.93;3.10;;;19.80;22.20;;;;;;10450417;28;20573;-75
2021/03/25 16:59:02;;;;;;;4.10;3.43;;;19.70;22.30;;;;;;10446489;28;20224;-75
2021/03/25 17:04:04;;;;;;;5.50;3.33;;;19.70;22.50;;;;;;10453810;28;20239;-75
2021/03/25 17:09:07;;;;;;;3.90;2.83;;;19.60;22.50;;;;;;10455613;28;20259;-75
2021/03/25 17:14:10;;;;;;;4.27;3.87;;;19.50;22.50;;;;;;10451638;28;20244;-75
2021/03/25 17:19:12;;;;;;;7.67;3.37;;;19.40;22.60;;;;;;10454416;28;20260;-75
2021/03/25 17:24:15;;;;;;;3.47;2.97;;;19.40;22.80;;;;;;10448493;28;20313;-76
2021/03/25 17:29:18;;;;;;;5.47;2.90;;;19.30;22.90;;;;;;10459408;28;20232;-75
2021/03/25 17:34:20;;;;;;;6.07;3.30;;;19.20;23.80;;;;;;10451143;28;20324;-75
2021/03/25 17:39:23;;;;;;;8.23;4.87;;;19.10;23.50;;;;;;10448204;28;20290;-73
2021/03/25 17:44:26;;;;;;;6.73;4.43;;;19.00;23.40;;;;;;10450321;28;20248;-73
2021/03/25 17:49:28;;;;;;;5.70;4.07;;;18.90;23.20;;;;;;10451077;28;20642;-73
2021/03/25 17:54:31;;;;;;;4.97;3.73;;;18.70;23.00;;;;;;10450421;28;20236;-73
2021/03/25 17:59:34;;;;;;;4.00;3.60;;;18.50;23.20;;;;;;10450285;28;20712;-73
2021/03/25 18:04:36;;;;;;;4.37;3.60;;;18.40;23.30;;;;;;10449125;28;20605;-74
2021/03/25 18:09:40;;;;;;;4.53;4.07;;;18.30;23.50;;;;;;10447554;28;20744;-73
2021/03/25 18:14:43;;;;;;;5.70;4.33;;;18.10;23.50;;;;;;10449924;28;20233;-73
2021/03/25 18:19:46;;;;;;;6.33;4.27;;;18.00;23.70;;;;;;10449752;28;20232;-73
2021/03/25 18:24:49;;;;;;;6.53;5.67;;;17.90;23.90;;;;;;10449829;28;20228;-73
2021/03/25 18:29:52;;;;;;;8.43;6.73;;;17.70;23.80;;;;;;10449814;28;20228;-73
2021/03/25 18:34:54;;;;;;;16.67;14.93;;;17.60;23.70;;;;;;10449409;28;20592;-73
2021/03/25 18:39:58;;;;;;;14.73;13.30;;;17.40;23.60;;;;;;10449521;28;20649;-73
2021/03/25 18:45:00;;;;;;;13.43;11.17;;;17.20;23.40;;;;;;10449481;28;20235;-73
2021/03/25 18:50:05;;;;;;;11.23;10.13;;;16.90;23.20;;;;;;10448760;28;20323;-73
2021/03/25 18:55:10;;;;;;;9.97;8.83;;;16.60;23.50;;;;;;10452142;28;20324;-73
2021/03/25 19:00:20;;;;;;;11.93;10.10;;;16.40;23.80;;;;;;10456912;28;20590;-73
2021/03/25 19:05:24;;;;;;;10.00;7.87;;;16.20;24.00;;;;;;10450238;28;20245;-74
2021/03/25 19:10:30;;;;;;;9.20;8.07;;;16.00;23.90;;;;;;10453270;28;20225;-73
2021/03/25 19:15:35;;;;;;;19.47;11.60;;;15.70;24.10;;;;;;10458030;28;20229;-73
2021/03/25 19:20:39;;;;;;;11.57;8.13;;;15.40;24.30;;;;;;10454558;28;20232;-72
2021/03/25 19:25:42;;;;;;;10.97;8.20;;;15.40;24.60;;;;;;10455620;28;20243;-72
2021/03/25 19:30:45;;;;;;;8.10;6.70;;;15.30;24.70;;;;;;10456193;28;20232;-72
2021/03/25 19:35:49;;;;;;;8.87;7.70;;;15.30;24.90;;;;;;10463844;28;20235;-72
2021/03/25 19:40:54;;;;;;;7.77;6.33;;;15.20;25.00;;;;;;10455528;28;20645;-72
2021/03/25 19:45:57;;;;;;;6.77;5.93;;;15.10;25.10;;;;;;10455221;28;20241;-72
2021/03/25 19:51:01;;;;;;;6.70;5.90;;;15.10;25.00;;;;;;10459136;28;20243;-72
2021/03/25 19:56:06;;;;;;;8.40;6.90;;;15.00;25.00;;;;;;10454885;28;20235;-73
2021/03/25 20:01:09;;;;;;;7.80;6.40;;;14.90;25.20;;;;;;10453052;28;20256;-72
2021/03/25 20:06:14;;;;;;;9.90;7.83;;;14.80;25.10;;;;;;10461765;28;20716;-72
2021/03/25 20:11:18;;;;;;;6.43;5.83;;;14.70;25.20;;;;;;10455858;28;20249;-72
2021/03/25 20:16:21;;;;;;;7.53;6.30;;;14.60;25.40;;;;;;10452135;28;20243;-72
2021/03/25 20:21:25;;;;;;;11.73;9.50;;;14.60;25.50;;;;;;10452816;28;20308;-72
2021/03/25 20:26:45;;;;;;;13.87;11.07;;;14.50;25.60;;;;;;10459992;28;20234;-73
2021/03/25 20:31:47;;;;;;;11.60;10.23;;;14.40;25.50;;;;;;10534890;28;20345;-71
2021/03/25 20:36:49;;;;;;;10.83;7.20;;;14.20;25.60;;;;;;10531753;28;20611;-72
2021/03/25 20:41:52;;;;;;;8.10;7.30;;;14.10;25.80;;;;;;10530728;28;20315;-73
2021/03/25 20:46:54;;;;;;;7.50;6.67;;;13.90;26.20;;;;;;10533922;28;20231;-72
2021/03/25 20:51:57;;;;;;;10.93;8.57;;;13.70;26.00;;;;;;10535848;28;20234;-72
2021/03/25 20:57:00;;;;;;;8.40;7.53;;;13.70;26.30;;;;;;10544830;28;20235;-72
2021/03/25 21:02:03;;;;;;;12.20;10.60;;;13.50;27.10;;;;;;10538553;28;20759;-72
2021/03/25 21:07:06;;;;;;;11.13;10.03;;;13.40;26.70;;;;;;10446045;22;20713;-74
2021/03/25 21:12:10;;;;;;;13.10;11.63;;;13.20;26.80;;;;;;10362086;28;20222;-74
2021/03/25 21:17:12;;;;;;;11.13;9.87;;;13.00;27.10;;;;;;10365133;28;20226;-74
2021/03/25 21:22:16;;;;;;;13.07;11.70;;;13.00;27.30;;;;;;10368938;28;20222;-74
2021/03/25 21:27:19;;;;;;;15.67;12.70;;;13.10;27.40;;;;;;10357938;28;20348;-74
2021/03/25 21:32:21;;;;;;;11.80;9.97;;;13.10;27.40;;;;;;10356777;28;20229;-74
2021/03/25 21:37:24;;;;;;;8.23;7.20;;;13.20;27.30;;;;;;10389885;28;20233;-74
2021/03/25 21:42:27;;;;;;;9.13;7.60;;;13.10;27.30;;;;;;10407156;28;20336;-75
2021/03/25 21:47:29;;;;;;;10.10;8.40;;;13.10;27.40;;;;;;10412621;28;20309;-75
2021/03/25 21:52:32;;;;;;;8.40;7.23;;;13.10;27.30;;;;;;10407452;28;20623;-75
2021/03/25 21:57:36;;;;;;;12.43;9.90;;;13.10;27.40;;;;;;10408343;28;20287;-75
2021/03/25 22:02:39;;;;;;;12.80;10.17;;;13.00;27.50;;;;;;10408023;28;20233;-75
2021/03/25 22:07:42;;;;;;;8.13;7.33;;;12.90;27.40;;;;;;10410840;28;20241;-75
2021/03/25 22:12:45;;;;;;;8.70;7.80;;;12.90;27.40;;;;;;10407918;28;20271;-75
2021/03/25 22:17:48;;;;;;;9.80;8.17;;;12.80;27.60;;;;;;10407419;28;20752;-75
2021/03/25 22:22:51;;;;;;;9.73;8.00;;;12.80;27.70;;;;;;10409439;28;20225;-75
2021/03/25 22:27:54;;;;;;;8.77;7.33;;;12.70;27.50;;;;;;10409924;28;20316;-75
2021/03/25 22:32:58;;;;;;;8.17;7.30;;;12.60;27.70;;;;;;10415191;28;20237;-74
2021/03/25 22:38:01;;;;;;;9.07;8.10;;;12.50;27.90;;;;;;10425846;28;20353;-75
2021/03/25 22:43:06;;;;;;;10.03;7.80;;;12.40;27.60;;;;;;10421407;28;20597;-75
2021/03/25 22:48:09;;;;;;;8.13;7.33;;;12.30;27.80;;;;;;10415463;28;20240;-75
2021/03/25 22:53:19;;;;;;;8.20;6.47;;;12.20;27.80;;;;;;10420987;28;20275;-75
2021/03/25 22:58:25;;;;;;;8.60;7.70;;;12.20;28.30;;;;;;10418243;28;20234;-75
2021/03/25 23:03:34;;;;;;;9.40;8.50;;;12.20;28.10;;;;;;10414540;28;20325;-76
2021/03/25 23:08:36;;;;;;;7.93;7.13;;;12.10;28.30;;;;;;10411021;28;20737;-75
2021/03/25 23:13:41;;;;;;;8.53;7.63;;;12.10;27.80;;;;;;10411784;28;20717;-75
2021/03/25 23:18:43;;;;;;;11.07;7.80;;;11.90;27.90;;;;;;10414223;28;20344;-75
2021/03/25 23:23:46;;;;;;;9.17;8.13;;;11.80;27.90;;;;;;10422217;28;20229;-75
2021/03/25 23:28:52;;;;;;;9.03;7.40;;;11.80;28.10;;;;;;10413987;28;20230;-75
2021/03/25 23:33:54;;;;;;;9.57;7.83;;;11.60;28.40;;;;;;10415663;28;20222;-75
2021/03/25 23:38:57;;;;;;;7.40;6.40;;;11.50;28.20;;;;;;10418516;28;20268;-75
2021/03/25 23:44:01;;;;;;;8.10;7.30;;;11.50;28.30;;;;;;10413355;28;20600;-75
2021/03/25 23:49:03;;;;;;;8.00;6.67;;;11.50;28.50;;;;;;10422857;28;20230;-74
2021/03/25 23:54:06;;;;;;;7.63;6.37;;;11.40;28.20;;;;;;10413056;28;20227;-75
2021/03/25 23:59:12;;;;;;;7.43;6.57;;;11.30;28.30;;;;;;10411015;28;20233;-74
